createdAt,value
2018-10-09T00:02:11.257Z,76.87
2018-10-09T00:04:38.719Z,76.75
2018-10-09T00:07:06.503Z,76.49
2018-10-09T00:09:33.950Z,76.52
2018-10-09T00:12:01.377Z,76.34
2018-10-09T00:14:29.128Z,76.60
2018-10-09T00:16:56.574Z,76.64
2018-10-09T00:19:24.059Z,76.69
2018-10-09T00:21:51.797Z,76.68
2018-10-09T00:24:19.265Z,76.64
2018-10-09T00:26:46.799Z,76.68
2018-10-09T00:29:14.377Z,76.89
2018-10-09T00:31:41.863Z,76.65
2018-10-09T00:34:09.319Z,76.60
2018-10-09T00:36:37.126Z,76.74
2018-10-09T00:39:06.952Z,76.67
2018-10-09T00:41:34.413Z,76.77
2018-10-09T00:44:02.323Z,76.65
2018-10-09T00:46:29.824Z,76.63
2018-10-09T00:48:57.354Z,76.69
2018-10-09T00:51:25.074Z,76.87
2018-10-09T00:53:52.594Z,76.65
2018-10-09T00:56:20.130Z,76.85
2018-10-09T00:58:47.870Z,76.43
2018-10-09T01:01:15.316Z,76.63
2018-10-09T01:03:42.831Z,76.70
2018-10-09T01:06:10.508Z,76.91
2018-10-09T01:08:37.969Z,76.66
2018-10-09T01:11:05.587Z,76.85
2018-10-09T01:13:33.313Z,76.66
2018-10-09T01:16:00.761Z,76.69
2018-10-09T01:18:28.284Z,76.54
2018-10-09T01:20:55.867Z,76.87
2018-10-09T01:23:23.607Z,76.50
2018-10-09T01:25:51.087Z,76.70
2018-10-09T01:28:18.852Z,76.52
2018-10-09T01:30:46.375Z,76.60
2018-10-09T01:33:13.850Z,76.51
2018-10-09T01:35:41.405Z,76.58
2018-10-09T01:38:08.920Z,76.80
2018-10-09T01:40:36.338Z,76.77
2018-10-09T01:43:04.104Z,77.01
2018-10-09T01:45:31.585Z,76.49
2018-10-09T01:47:59.019Z,76.68
2018-10-09T01:50:26.730Z,76.81
2018-10-09T01:52:54.163Z,76.74
2018-10-09T01:55:21.644Z,76.82
2018-10-09T01:57:49.324Z,76.63
2018-10-09T02:00:17.362Z,76.74
2018-10-09T02:02:44.785Z,76.58
2018-10-09T02:05:12.414Z,76.79
2018-10-09T02:07:39.921Z,76.56
2018-10-09T02:10:07.357Z,76.49
2018-10-09T02:12:35.064Z,76.60
2018-10-09T02:15:02.576Z,76.59
2018-10-09T02:17:30.103Z,76.42
2018-10-09T02:19:57.683Z,76.55
2018-10-09T02:22:25.141Z,76.62
2018-10-09T02:24:52.647Z,76.49
2018-10-09T02:27:20.224Z,76.65
2018-10-09T02:29:47.831Z,76.58
2018-10-09T02:32:15.290Z,76.47
2018-10-09T02:34:42.874Z,76.42
2018-10-09T02:37:10.403Z,76.44
2018-10-09T02:39:37.831Z,76.60
2018-10-09T02:42:05.620Z,76.66
2018-10-09T02:44:33.115Z,76.52
2018-10-09T02:47:00.788Z,76.59
2018-10-09T02:49:28.429Z,76.58
2018-10-09T02:51:55.900Z,76.70
2018-10-09T02:54:23.328Z,76.69
2018-10-09T02:56:51.057Z,76.32
2018-10-09T02:59:18.513Z,76.76
2018-10-09T03:01:45.977Z,76.89
2018-10-09T03:04:13.683Z,76.68
2018-10-09T03:06:41.200Z,76.60
2018-10-09T03:09:09.037Z,76.58
2018-10-09T03:11:36.660Z,76.49
2018-10-09T03:14:04.414Z,76.39
2018-10-09T03:16:31.912Z,76.37
2018-10-09T03:18:59.644Z,76.32
2018-10-09T03:21:27.143Z,76.69
2018-10-09T03:23:54.734Z,76.49
2018-10-09T03:26:22.286Z,76.10
2018-10-09T03:28:49.781Z,76.46
2018-10-09T03:31:17.274Z,76.17
2018-10-09T03:33:44.964Z,76.37
2018-10-09T03:36:12.620Z,76.30
2018-10-09T03:38:40.042Z,76.33
2018-10-09T03:41:07.788Z,76.47
2018-10-09T03:43:35.389Z,76.10
2018-10-09T03:46:02.858Z,76.59
2018-10-09T03:48:30.735Z,76.18
2018-10-09T03:50:58.165Z,76.35
2018-10-09T03:53:25.681Z,76.38
2018-10-09T03:55:53.441Z,76.25
2018-10-09T03:58:20.933Z,76.44
2018-10-09T04:00:48.404Z,76.49
2018-10-09T04:03:16.146Z,76.24
2018-10-09T04:05:43.626Z,76.62
2018-10-09T04:08:11.113Z,76.29
2018-10-09T04:10:38.728Z,76.15
2018-10-09T04:13:06.210Z,76.11
2018-10-09T04:15:33.762Z,76.39
2018-10-09T04:18:01.455Z,76.48
2018-10-09T04:20:28.905Z,76.29
2018-10-09T04:22:56.333Z,76.46
2018-10-09T04:25:24.014Z,76.47
2018-10-09T04:27:51.498Z,76.47
2018-10-09T04:30:18.966Z,76.03
2018-10-09T04:32:46.528Z,76.33
2018-10-09T04:35:13.948Z,76.04
2018-10-09T04:37:41.468Z,76.35
2018-10-09T04:40:09.106Z,75.93
2018-10-09T04:42:36.702Z,75.79
2018-10-09T04:45:04.322Z,75.96
2018-10-09T04:47:32.135Z,75.97
2018-10-09T04:49:59.812Z,76.03
2018-10-09T04:52:27.250Z,75.85
2018-10-09T04:54:54.849Z,75.95
2018-10-09T04:57:22.301Z,76.01
2018-10-09T04:59:49.792Z,76.27
2018-10-09T05:02:17.761Z,76.00
2018-10-09T05:04:45.292Z,76.01
2018-10-09T05:07:12.750Z,76.29
2018-10-09T05:09:40.385Z,76.58
2018-10-09T05:12:07.819Z,76.46
2018-10-09T05:14:35.235Z,76.21
2018-10-09T05:17:03.003Z,76.41
2018-10-09T05:19:30.492Z,75.97
2018-10-09T05:21:57.992Z,75.98
2018-10-09T05:24:25.572Z,75.97
2018-10-09T05:26:53.145Z,75.95
2018-10-09T05:29:20.615Z,76.11
2018-10-09T05:31:48.309Z,75.97
2018-10-09T05:34:15.797Z,75.85
2018-10-09T05:36:43.245Z,75.91
2018-10-09T05:39:10.929Z,76.00
2018-10-09T05:41:38.476Z,75.92
2018-10-09T05:44:06.245Z,75.87
2018-10-09T05:46:34.241Z,75.81
2018-10-09T05:49:01.773Z,76.14
2018-10-09T05:51:29.426Z,75.89
2018-10-09T05:53:57.092Z,75.88
2018-10-09T05:56:24.566Z,75.95
2018-10-09T05:58:52.186Z,76.09
2018-10-09T06:01:22.675Z,75.95
2018-10-09T06:03:50.272Z,75.99
2018-10-09T06:06:17.818Z,75.92
2018-10-09T06:08:45.635Z,76.25
2018-10-09T06:11:13.142Z,75.99
2018-10-09T06:13:40.643Z,76.07
2018-10-09T06:16:08.356Z,76.12
2018-10-09T06:18:35.816Z,76.00
2018-10-09T06:21:03.344Z,76.28
2018-10-09T06:23:30.990Z,76.21
2018-10-09T06:25:58.507Z,76.28
2018-10-09T06:28:26.124Z,76.18
2018-10-09T06:30:53.834Z,76.34
2018-10-09T06:33:21.317Z,76.38
2018-10-09T06:35:48.788Z,76.26
2018-10-09T06:38:16.688Z,75.96
2018-10-09T06:40:44.221Z,76.12
2018-10-09T06:43:11.693Z,76.40
2018-10-09T06:45:39.428Z,75.97
2018-10-09T06:48:06.893Z,76.32
2018-10-09T06:50:34.436Z,76.05
2018-10-09T06:53:02.434Z,76.26
2018-10-09T06:55:29.949Z,76.20
2018-10-09T06:57:57.421Z,76.30
2018-10-09T07:00:25.228Z,76.05
2018-10-09T07:02:52.779Z,76.48
2018-10-09T07:05:20.520Z,76.02
2018-10-09T07:07:48.326Z,76.18
2018-10-09T07:10:15.837Z,76.03
2018-10-09T07:12:43.383Z,76.18
2018-10-09T07:15:11.154Z,76.17
2018-10-09T07:17:38.630Z,76.14
2018-10-09T07:20:06.169Z,76.06
2018-10-09T07:22:33.918Z,76.21
2018-10-09T07:25:01.424Z,76.20
2018-10-09T07:27:28.842Z,76.51
2018-10-09T07:29:56.528Z,76.43
2018-10-09T07:32:24.002Z,76.16
2018-10-09T07:34:51.483Z,76.36
2018-10-09T07:37:19.252Z,76.06
2018-10-09T07:39:46.761Z,76.41
2018-10-09T07:42:14.237Z,76.23
2018-10-09T07:44:41.883Z,76.21
2018-10-09T07:47:09.405Z,76.21
2018-10-09T07:49:36.906Z,75.87
2018-10-09T07:52:04.572Z,76.25
2018-10-09T07:54:32.201Z,75.93
2018-10-09T07:56:59.649Z,75.88
2018-10-09T07:59:27.454Z,76.02
2018-10-09T08:01:54.981Z,76.03
2018-10-09T08:04:22.541Z,76.34
2018-10-09T08:06:50.282Z,76.30
2018-10-09T08:09:17.745Z,76.24
2018-10-09T08:11:45.272Z,76.48
2018-10-09T08:14:12.871Z,76.34
2018-10-09T08:16:40.403Z,76.46
2018-10-09T08:19:07.928Z,76.15
2018-10-09T08:21:35.650Z,76.42
2018-10-09T08:24:03.169Z,76.70
2018-10-09T08:26:30.664Z,76.39
2018-10-09T08:28:58.551Z,76.32
2018-10-09T08:31:25.987Z,76.33
2018-10-09T08:33:53.470Z,76.24
2018-10-09T08:36:21.194Z,76.23
2018-10-09T08:38:48.659Z,76.19
2018-10-09T08:41:16.171Z,76.06
2018-10-09T08:43:43.934Z,75.82
2018-10-09T08:46:11.501Z,76.11
2018-10-09T08:48:39.284Z,76.12
2018-10-09T08:51:07.098Z,76.12
2018-10-09T08:53:34.590Z,76.22
2018-10-09T08:56:02.291Z,76.27
2018-10-09T08:58:29.860Z,76.36
2018-10-09T09:00:57.396Z,76.48
2018-10-09T09:03:24.872Z,76.46
2018-10-09T09:05:52.583Z,76.77
2018-10-09T09:08:20.113Z,76.71
2018-10-09T09:10:47.581Z,76.92
2018-10-09T09:13:15.393Z,77.03
2018-10-09T09:15:42.922Z,77.38
2018-10-09T09:18:10.415Z,77.24
2018-10-09T09:20:38.269Z,77.22
2018-10-09T09:23:05.628Z,77.31
2018-10-09T09:25:33.080Z,77.26
2018-10-09T09:28:00.780Z,77.33
2018-10-09T09:30:28.237Z,77.54
2018-10-09T09:32:55.900Z,77.63
2018-10-09T09:35:23.540Z,77.58
2018-10-09T09:37:51.038Z,77.19
2018-10-09T09:40:18.527Z,77.23
2018-10-09T09:42:46.218Z,77.62
2018-10-09T09:45:13.834Z,77.80
2018-10-09T09:47:41.348Z,77.42
2018-10-09T09:50:09.189Z,77.62
2018-10-09T09:52:36.663Z,77.60
2018-10-09T09:55:04.247Z,77.59
2018-10-09T09:57:32.359Z,77.54
2018-10-09T09:59:59.843Z,77.60
2018-10-09T10:02:27.358Z,77.54
2018-10-09T10:04:54.897Z,77.55
2018-10-09T10:07:22.377Z,77.76
2018-10-09T10:09:49.887Z,77.80
2018-10-09T10:12:17.623Z,77.48
2018-10-09T10:14:45.096Z,77.20
2018-10-09T10:17:12.539Z,77.42
2018-10-09T10:19:40.207Z,77.30
2018-10-09T10:22:07.721Z,77.31
2018-10-09T10:24:35.195Z,77.12
2018-10-09T10:27:02.869Z,77.45
2018-10-09T10:29:30.385Z,77.45
2018-10-09T10:31:57.918Z,77.18
2018-10-09T10:34:25.640Z,77.51
2018-10-09T10:36:53.088Z,77.15
2018-10-09T10:39:20.502Z,77.02
2018-10-09T10:41:48.250Z,76.88
2018-10-09T10:44:15.737Z,77.00
2018-10-09T10:46:43.247Z,77.16
2018-10-09T10:49:12.876Z,77.14
2018-10-09T10:51:40.437Z,76.61
2018-10-09T10:54:07.980Z,76.85
2018-10-09T10:56:35.867Z,76.63
2018-10-09T10:59:04.143Z,76.66
2018-10-09T11:01:31.857Z,76.51
2018-10-09T11:03:59.680Z,76.58
2018-10-09T11:06:27.269Z,76.41
2018-10-09T11:08:54.748Z,76.15
2018-10-09T11:11:22.334Z,76.20
2018-10-09T11:13:49.747Z,76.24
2018-10-09T11:16:17.831Z,75.97
2018-10-09T11:18:45.528Z,75.91
2018-10-09T11:21:13.023Z,75.83
2018-10-09T11:23:40.508Z,75.97
2018-10-09T11:26:08.233Z,75.90
2018-10-09T11:28:35.707Z,75.61
2018-10-09T11:31:03.220Z,75.36
2018-10-09T11:33:30.876Z,75.17
2018-10-09T11:35:58.432Z,75.03
2018-10-09T11:38:25.881Z,75.82
2018-10-09T11:40:53.741Z,75.27
2018-10-09T11:43:21.303Z,75.16
2018-10-09T11:45:48.795Z,74.91
2018-10-09T11:48:16.711Z,74.88
2018-10-09T11:50:44.263Z,75.14
2018-10-09T11:53:11.743Z,74.93
2018-10-09T11:55:42.266Z,74.61
2018-10-09T11:58:09.757Z,74.57
2018-10-09T12:00:39.169Z,74.56
2018-10-09T12:03:07.018Z,74.25
2018-10-09T12:05:34.657Z,74.41
2018-10-09T12:08:02.386Z,74.27
2018-10-09T12:10:30.085Z,74.39
2018-10-09T12:12:57.518Z,74.02
2018-10-09T12:15:25.468Z,74.03
2018-10-09T12:17:53.152Z,73.91
2018-10-09T12:20:20.672Z,73.83
2018-10-09T12:22:48.193Z,73.91
2018-10-09T12:25:15.912Z,73.93
2018-10-09T12:27:43.407Z,73.95
2018-10-09T12:30:10.888Z,73.79
2018-10-09T12:32:38.654Z,74.07
2018-10-09T12:35:06.555Z,73.93
2018-10-09T12:37:34.080Z,73.69
2018-10-09T12:40:01.697Z,73.97
2018-10-09T12:42:29.179Z,73.60
2018-10-09T12:44:56.625Z,73.83
2018-10-09T12:47:24.323Z,73.87
2018-10-09T12:49:51.869Z,73.49
2018-10-09T12:52:19.335Z,73.58
2018-10-09T12:54:47.067Z,73.73
2018-10-09T12:57:14.599Z,73.58
2018-10-09T12:59:42.102Z,73.25
2018-10-09T13:02:09.906Z,73.66
2018-10-09T13:04:37.423Z,73.63
2018-10-09T13:07:04.977Z,73.18
2018-10-09T13:09:32.766Z,73.42
2018-10-09T13:12:00.186Z,73.34
2018-10-09T13:14:27.665Z,73.34
2018-10-09T13:16:55.336Z,73.22
2018-10-09T13:19:22.791Z,73.23
2018-10-09T13:21:50.790Z,73.56
2018-10-09T13:24:18.029Z,73.40
2018-10-09T13:26:45.607Z,73.24
2018-10-09T13:29:13.141Z,73.05
2018-10-09T13:31:40.814Z,73.19
2018-10-09T13:34:08.341Z,73.05
2018-10-09T13:36:35.801Z,73.37
2018-10-09T13:39:04.718Z,73.25
2018-10-09T13:41:32.196Z,73.18
2018-10-09T13:43:59.708Z,73.45
2018-10-09T13:46:27.430Z,73.27
2018-10-09T13:48:54.859Z,73.21
2018-10-09T13:51:22.406Z,73.31
2018-10-09T13:53:50.065Z,73.30
2018-10-09T13:56:17.525Z,73.23
2018-10-09T13:58:45.021Z,73.21
2018-10-09T14:01:12.743Z,72.85
2018-10-09T14:03:40.454Z,73.12
2018-10-09T14:06:07.967Z,73.21
2018-10-09T14:08:35.682Z,73.29
2018-10-09T14:11:03.252Z,73.26
2018-10-09T14:13:30.698Z,73.38
2018-10-09T14:15:58.463Z,73.21
2018-10-09T14:18:25.947Z,73.06
2018-10-09T14:20:53.423Z,73.39
2018-10-09T14:23:21.015Z,73.09
2018-10-09T14:25:49.576Z,73.11
2018-10-09T14:28:17.079Z,73.12
2018-10-09T14:30:44.675Z,73.17
2018-10-09T14:33:12.135Z,73.51
2018-10-09T14:35:39.661Z,73.21
2018-10-09T14:38:07.354Z,73.23
2018-10-09T14:40:34.936Z,73.15
2018-10-09T14:43:02.488Z,73.23
2018-10-09T14:45:30.114Z,73.21
2018-10-09T14:47:57.634Z,73.12
2018-10-09T14:50:25.138Z,72.79
2018-10-09T14:52:53.009Z,73.04
2018-10-09T14:55:20.461Z,73.14
2018-10-09T14:57:48.056Z,73.12
2018-10-09T15:00:15.970Z,73.07
2018-10-09T15:02:43.489Z,72.71
2018-10-09T15:05:11.282Z,72.62
2018-10-09T15:07:39.113Z,72.79
2018-10-09T15:10:06.666Z,73.07
2018-10-09T15:12:34.291Z,72.96
2018-10-09T15:15:01.928Z,72.92
2018-10-09T15:17:29.532Z,72.76
2018-10-09T15:19:56.954Z,72.55
2018-10-09T15:22:24.636Z,72.77
2018-10-09T15:24:52.834Z,72.82
2018-10-09T15:27:20.285Z,73.18
2018-10-09T15:29:47.871Z,73.02
2018-10-09T15:32:15.417Z,73.20
2018-10-09T15:34:43.026Z,72.70
2018-10-09T15:37:10.605Z,72.94
2018-10-09T15:39:38.143Z,73.02
2018-10-09T15:42:05.767Z,73.29
2018-10-09T15:44:33.456Z,73.01
2018-10-09T15:47:00.966Z,73.49
2018-10-09T15:49:28.526Z,73.15
2018-10-09T15:51:56.142Z,72.95
2018-10-09T15:54:23.555Z,73.18
2018-10-09T15:56:51.082Z,73.25
2018-10-09T15:59:18.795Z,73.21
2018-10-09T16:01:46.285Z,72.95
2018-10-09T16:04:13.827Z,73.13
2018-10-09T16:06:41.717Z,73.41
2018-10-09T16:09:10.138Z,73.42
2018-10-09T16:11:37.685Z,73.41
2018-10-09T16:14:05.348Z,73.47
2018-10-09T16:16:32.875Z,73.50
2018-10-09T16:19:00.316Z,73.48
2018-10-09T16:21:27.877Z,73.29
2018-10-09T16:23:55.421Z,73.23
2018-10-09T16:26:22.920Z,73.14
2018-10-09T16:28:50.409Z,73.10
2018-10-09T16:31:17.899Z,73.20
2018-10-09T16:33:45.377Z,73.20
2018-10-09T16:36:12.991Z,73.12
2018-10-09T16:38:40.422Z,72.96
2018-10-09T16:41:08.334Z,73.35
2018-10-09T16:43:35.936Z,72.94
2018-10-09T16:46:04.126Z,72.72
2018-10-09T16:48:31.668Z,73.00
2018-10-09T16:50:59.523Z,73.00
2018-10-09T16:53:27.183Z,72.98
2018-10-09T16:55:54.533Z,73.24
2018-10-09T16:58:22.073Z,73.44
2018-10-09T17:00:49.663Z,73.59
2018-10-09T17:03:17.141Z,73.35
2018-10-09T17:05:44.930Z,73.33
2018-10-09T17:08:12.520Z,73.24
2018-10-09T17:10:40.096Z,73.44
2018-10-09T17:13:07.922Z,73.31
2018-10-09T17:15:35.463Z,73.35
2018-10-09T17:18:03.019Z,73.28
2018-10-09T17:20:30.626Z,73.39
2018-10-09T17:22:58.131Z,73.33
2018-10-09T17:25:25.614Z,73.73
2018-10-09T17:27:53.266Z,73.74
2018-10-09T17:30:20.778Z,73.60
2018-10-09T17:32:48.227Z,73.70
2018-10-09T17:35:15.951Z,73.75
2018-10-09T17:37:43.394Z,73.75
2018-10-09T17:40:10.955Z,73.72
2018-10-09T17:42:38.578Z,73.75
2018-10-09T17:45:06.172Z,73.83
2018-10-09T17:47:33.659Z,74.05
2018-10-09T17:50:01.277Z,74.32
2018-10-09T17:52:28.723Z,74.20
2018-10-09T17:54:56.207Z,73.75
2018-10-09T17:57:23.760Z,74.12
2018-10-09T17:59:51.239Z,73.80
2018-10-09T18:02:18.781Z,74.31
2018-10-09T18:04:46.414Z,73.98
2018-10-09T18:07:14.030Z,74.10
2018-10-09T18:09:41.923Z,74.22
2018-10-09T18:12:09.541Z,74.10
2018-10-09T18:14:36.980Z,74.20
2018-10-09T18:17:04.455Z,74.05
2018-10-09T18:19:31.991Z,74.28
2018-10-09T18:21:59.479Z,74.24
2018-10-09T18:24:26.977Z,73.83
2018-10-09T18:26:54.486Z,74.00
2018-10-09T18:29:21.976Z,73.60
2018-10-09T18:35:19.967Z,74.04
2018-10-09T18:37:47.413Z,73.89
2018-10-09T18:40:14.877Z,73.88
2018-10-09T18:42:42.481Z,73.61
2018-10-09T18:45:10.033Z,73.81
2018-10-09T18:47:40.410Z,73.96
2018-10-09T18:50:07.945Z,73.60
2018-10-09T18:52:35.408Z,73.88
2018-10-09T18:55:02.982Z,73.56
2018-10-09T18:57:30.577Z,73.58
2018-10-09T18:59:58.063Z,73.88
2018-10-09T19:02:25.591Z,73.54
2018-10-09T19:04:53.359Z,73.87
2018-10-09T19:07:20.843Z,73.98
2018-10-09T19:12:30.575Z,73.86
2018-10-09T19:14:58.085Z,73.62
2018-10-09T19:17:25.656Z,73.48
2018-10-09T19:19:53.157Z,73.27
2018-10-09T19:22:20.708Z,73.46
2018-10-09T19:24:48.206Z,73.63
2018-10-09T19:27:16.069Z,73.62
2018-10-09T19:29:43.647Z,73.46
2018-10-09T19:32:11.273Z,73.55
2018-10-09T19:34:39.085Z,73.59
2018-10-09T19:37:06.549Z,73.68
2018-10-09T19:39:34.057Z,73.92
2018-10-09T19:42:01.728Z,73.59
2018-10-09T19:44:29.238Z,73.84
2018-10-09T19:46:56.812Z,73.83
2018-10-09T19:49:24.266Z,73.86
2018-10-09T19:51:51.724Z,74.06
2018-10-09T19:54:19.230Z,74.03
2018-10-09T19:56:46.627Z,74.15
2018-10-09T19:59:14.078Z,74.47
2018-10-09T20:01:41.570Z,74.46
2018-10-09T20:04:09.180Z,74.02
2018-10-09T20:06:36.728Z,74.47
2018-10-09T20:09:08.012Z,74.31
2018-10-09T20:11:35.835Z,74.55
2018-10-09T20:14:03.381Z,74.30
2018-10-09T20:16:30.866Z,74.34
2018-10-09T20:18:58.512Z,74.53
2018-10-09T20:21:25.989Z,74.26
2018-10-09T20:23:53.523Z,74.44
2018-10-09T20:26:51.981Z,74.65
2018-10-09T20:29:19.493Z,74.27
2018-10-09T20:31:46.985Z,74.45
2018-10-09T20:34:14.541Z,74.47
2018-10-09T20:36:42.001Z,74.26
2018-10-09T20:39:09.519Z,74.00
2018-10-09T20:41:37.014Z,74.13
2018-10-09T20:44:04.480Z,74.35
2018-10-09T20:46:31.957Z,73.86
2018-10-09T20:48:59.605Z,74.24
2018-10-09T20:51:27.105Z,74.07
2018-10-09T20:53:54.585Z,74.38
2018-10-09T20:56:22.195Z,74.28
2018-10-09T20:58:49.622Z,74.24
2018-10-09T21:01:17.104Z,74.03
2018-10-09T21:03:44.602Z,74.52
2018-10-09T21:06:12.250Z,74.50
2018-10-09T21:08:39.664Z,74.50
2018-10-09T21:11:07.703Z,74.79
2018-10-09T21:13:35.497Z,74.59
2018-10-09T21:16:02.998Z,74.75
2018-10-09T21:18:30.666Z,75.30
2018-10-09T21:20:58.137Z,74.40
2018-10-09T21:23:25.644Z,75.05
2018-10-09T21:25:53.370Z,74.67
2018-10-09T21:28:20.845Z,74.72
2018-10-09T21:30:48.374Z,74.26
2018-10-09T21:33:15.951Z,74.92
2018-10-09T21:35:43.435Z,74.44
2018-10-09T21:38:10.960Z,74.45
2018-10-09T21:40:38.512Z,74.70
2018-10-09T21:43:06.086Z,74.15
2018-10-09T21:45:33.590Z,74.46
2018-10-09T21:48:01.673Z,74.91
2018-10-09T21:50:29.130Z,74.71
2018-10-09T21:52:57.207Z,74.84
2018-10-09T21:55:25.027Z,74.44
2018-10-09T21:57:52.501Z,74.51
2018-10-09T22:00:19.981Z,74.88
2018-10-09T22:02:47.700Z,74.60
2018-10-09T22:05:15.103Z,74.68
2018-10-09T22:07:42.589Z,74.60
2018-10-09T22:10:10.433Z,74.60
2018-10-09T22:12:37.974Z,74.58
2018-10-09T22:15:06.289Z,74.56
2018-10-09T22:17:34.271Z,74.81
2018-10-09T22:20:01.791Z,74.52
2018-10-09T22:22:29.339Z,74.88
2018-10-09T22:24:56.953Z,74.78
2018-10-09T22:27:24.450Z,74.70
2018-10-09T22:29:52.781Z,75.04
2018-10-09T22:32:20.598Z,74.93
2018-10-09T22:34:48.403Z,75.05
2018-10-09T22:37:15.973Z,74.94
2018-10-09T22:39:43.635Z,74.97
2018-10-09T22:42:11.119Z,74.73
2018-10-09T22:44:38.566Z,74.82
2018-10-09T22:47:06.240Z,74.87
2018-10-09T22:49:33.744Z,74.76
2018-10-09T22:52:01.165Z,75.44
2018-10-09T22:54:28.895Z,74.90
2018-10-09T22:56:56.445Z,75.07
2018-10-09T22:59:24.305Z,75.17
2018-10-09T23:01:51.909Z,75.35
2018-10-09T23:04:19.386Z,75.21
2018-10-09T23:06:47.016Z,75.08
2018-10-09T23:09:14.576Z,75.32
2018-10-09T23:11:42.080Z,75.24
2018-10-09T23:14:09.586Z,75.23
2018-10-09T23:16:37.634Z,75.07
2018-10-09T23:19:05.493Z,75.29
2018-10-09T23:21:32.911Z,75.55
2018-10-09T23:24:00.601Z,75.26
2018-10-09T23:26:28.176Z,74.90
2018-10-09T23:28:55.670Z,75.23
2018-10-09T23:31:54.063Z,75.19
2018-10-09T23:34:21.554Z,74.89
2018-10-09T23:36:49.060Z,75.02
2018-10-09T23:39:16.718Z,75.20
2018-10-09T23:41:44.232Z,75.51
2018-10-09T23:44:11.687Z,75.57
2018-10-09T23:46:39.293Z,75.77
2018-10-09T23:49:06.738Z,75.44
2018-10-09T23:51:34.217Z,75.80
2018-10-09T23:54:01.761Z,75.46
2018-10-09T23:56:29.228Z,75.57
2018-10-09T23:58:56.739Z,75.40
